createdAt,value
2023-02-19T00:59:20.444Z,73.20
2023-02-19T01:04:23.784Z,72.50
2023-02-19T01:09:26.365Z,72.50
2023-02-19T01:14:30.409Z,72.40
2023-02-19T01:19:32.870Z,72.00
2023-02-19T01:24:35.784Z,71.90
2023-02-19T01:29:40.196Z,71.60
2023-02-19T01:34:42.737Z,71.50
2023-02-19T01:39:45.081Z,71.40
2023-02-19T01:45:27.412Z,71.30
2023-02-19T01:50:35.123Z,71.40
2023-02-19T01:55:39.013Z,71.40
2023-02-19T02:00:43.305Z,71.30
2023-02-19T02:05:56.163Z,71.50
2023-02-19T02:10:58.844Z,71.40
2023-02-19T02:16:22.416Z,71.50
2023-02-19T02:21:49.522Z,71.80
2023-02-19T02:27:16.220Z,71.60
2023-02-19T02:32:26.933Z,71.30
2023-02-19T02:37:35.321Z,71.50
2023-02-19T02:42:40.424Z,71.50
2023-02-19T02:47:53.413Z,71.70
2023-02-19T02:53:01.624Z,71.60
2023-02-19T02:58:06.018Z,71.60
2023-02-19T03:03:10.086Z,71.50
2023-02-19T03:08:18.172Z,71.40
2023-02-19T03:13:28.634Z,71.30
2023-02-19T03:18:37.669Z,71.00
2023-02-19T03:23:41.359Z,70.90
2023-02-19T03:28:46.968Z,70.60
2023-02-19T03:33:56.055Z,70.80
2023-02-19T03:39:03.388Z,71.00
2023-02-19T03:44:16.459Z,70.60
2023-02-19T03:49:29.977Z,70.90
2023-02-19T03:54:40.653Z,70.40
2023-02-19T03:59:50.638Z,71.00
2023-02-19T04:05:05.518Z,71.40
2023-02-19T04:10:09.742Z,71.50
2023-02-19T04:15:26.450Z,71.80
2023-02-19T04:20:35.755Z,72.00
2023-02-19T04:25:43.948Z,71.80
2023-02-19T04:30:46.421Z,71.40
2023-02-19T04:35:50.080Z,71.50
2023-02-19T04:40:52.326Z,71.20
2023-02-19T04:45:54.681Z,71.60
2023-02-19T04:50:58.470Z,71.60
2023-02-19T04:56:07.682Z,71.50
2023-02-19T05:01:11.455Z,71.70
2023-02-19T05:06:15.519Z,71.90
2023-02-19T05:11:17.997Z,71.80
2023-02-19T05:16:20.173Z,71.90
2023-02-19T05:21:23.874Z,71.80
2023-02-19T05:26:26.000Z,71.90
2023-02-19T05:31:28.901Z,71.60
2023-02-19T05:36:33.258Z,71.80
2023-02-19T05:41:35.532Z,71.80
2023-02-19T05:46:37.958Z,71.90
2023-02-19T05:51:41.508Z,71.90
2023-02-19T05:56:43.680Z,72.40
2023-02-19T06:01:46.773Z,72.10
2023-02-19T06:06:50.481Z,72.70
2023-02-19T06:11:52.738Z,72.30
2023-02-19T06:16:54.946Z,72.20
2023-02-19T06:21:58.514Z,72.30
2023-02-19T06:27:00.806Z,72.20
2023-02-19T06:32:03.088Z,72.30
2023-02-19T06:37:06.889Z,72.70
2023-02-19T06:42:09.244Z,72.20
2023-02-19T06:47:11.599Z,72.00
2023-02-19T06:52:15.195Z,71.90
2023-02-19T06:57:17.449Z,71.90
2023-02-19T07:02:19.756Z,71.60
2023-02-19T07:07:23.369Z,71.60
2023-02-19T07:12:25.652Z,71.60
2023-02-19T07:17:27.956Z,72.10
2023-02-19T07:22:31.688Z,71.70
2023-02-19T07:27:34.035Z,71.20
2023-02-19T07:32:36.360Z,71.30
2023-02-19T07:37:41.338Z,71.40
2023-02-19T07:42:43.658Z,70.90
2023-02-19T07:47:45.957Z,70.20
2023-02-19T07:52:49.632Z,70.40
2023-02-19T07:57:51.963Z,71.10
2023-02-19T08:02:54.326Z,71.40
2023-02-19T08:07:58.630Z,69.90
2023-02-19T08:13:02.122Z,70.70
2023-02-19T08:18:04.606Z,70.60
2023-02-19T08:23:08.804Z,70.30
2023-02-19T08:28:12.761Z,69.50
2023-02-19T08:33:18.156Z,71.30
2023-02-19T08:38:22.082Z,71.10
2023-02-19T08:43:24.534Z,71.10
2023-02-19T08:48:27.434Z,70.60
2023-02-19T08:53:32.596Z,70.10
2023-02-19T08:58:34.939Z,70.80
2023-02-19T09:03:37.413Z,70.40
2023-02-19T09:08:41.508Z,68.90
2023-02-19T09:13:44.402Z,68.80
2023-02-19T09:18:46.807Z,68.00
2023-02-19T09:23:50.625Z,67.60
2023-02-19T09:28:53.100Z,67.10
2023-02-19T09:33:55.436Z,67.40
2023-02-19T09:38:59.108Z,65.90
2023-02-19T09:44:04.673Z,64.00
2023-02-19T09:49:14.727Z,63.90
2023-02-19T09:54:24.826Z,62.30
2023-02-19T09:59:32.821Z,62.00
2023-02-19T10:04:35.410Z,63.10
2023-02-19T10:09:39.417Z,61.30
2023-02-19T10:14:49.896Z,61.10
2023-02-19T10:19:53.758Z,61.10
2023-02-19T10:24:58.559Z,58.80
2023-02-19T10:30:01.742Z,59.30
2023-02-19T10:35:11.018Z,58.50
2023-02-19T10:40:19.718Z,58.90
2023-02-19T10:45:27.387Z,55.60
2023-02-19T10:50:35.562Z,56.10
2023-02-19T10:55:39.627Z,54.90
2023-02-19T11:00:41.908Z,53.70
2023-02-19T11:05:57.403Z,52.20
2023-02-19T11:11:01.079Z,53.00
2023-02-19T11:16:05.120Z,51.40
2023-02-19T11:21:22.508Z,53.60
2023-02-19T11:26:31.215Z,48.40
2023-02-19T11:31:34.489Z,49.90
2023-02-19T11:36:38.083Z,51.70
2023-02-19T11:42:11.578Z,48.00
2023-02-19T11:47:55.739Z,49.70
2023-02-19T11:53:17.059Z,50.30
2023-02-19T11:59:01.551Z,49.70
2023-02-19T12:04:39.845Z,47.10
2023-02-19T12:10:02.418Z,47.70
2023-02-19T12:15:46.760Z,47.70
2023-02-19T12:21:06.980Z,47.20
2023-02-19T12:26:22.035Z,46.50
2023-02-19T12:32:09.243Z,46.30
2023-02-19T12:37:29.504Z,48.40
2023-02-19T12:42:54.152Z,47.10
2023-02-19T12:48:06.424Z,47.30
2023-02-19T12:53:20.494Z,45.80
2023-02-19T12:58:35.494Z,45.60
2023-02-19T13:03:48.964Z,45.20
2023-02-19T13:09:07.293Z,45.80
2023-02-19T13:14:23.295Z,47.00
2023-02-19T13:19:27.244Z,45.40
2023-02-19T13:24:36.234Z,46.90
2023-02-19T13:30:02.446Z,47.00
2023-02-19T13:35:26.322Z,44.70
2023-02-19T13:40:34.097Z,43.50
2023-02-19T13:45:43.322Z,44.60
2023-02-19T13:50:47.682Z,44.00
2023-02-19T13:55:52.592Z,44.40
2023-02-19T14:00:55.554Z,44.10
2023-02-19T14:06:03.976Z,44.90
2023-02-19T14:11:07.305Z,45.10
2023-02-19T14:16:31.145Z,45.80
2023-02-19T14:21:40.683Z,45.80
2023-02-19T14:26:46.168Z,44.40
2023-02-19T14:31:49.356Z,45.00
2023-02-19T14:36:56.300Z,43.30
2023-02-19T14:42:02.640Z,44.60
2023-02-19T14:47:07.717Z,45.10
2023-02-19T14:52:20.424Z,42.40
2023-02-19T14:57:30.328Z,41.50
2023-02-19T15:02:41.561Z,39.70
2023-02-19T15:07:46.341Z,39.30
2023-02-19T15:12:54.750Z,39.80
2023-02-19T15:18:00.349Z,39.40
2023-02-19T15:23:08.298Z,40.50
2023-02-19T15:28:29.600Z,40.70
2023-02-19T15:33:32.943Z,41.00
2023-02-19T15:38:37.203Z,42.20
2023-02-19T15:43:46.852Z,42.10
2023-02-19T15:48:56.332Z,42.20
2023-02-19T15:54:09.548Z,43.20
2023-02-19T15:59:24.484Z,43.50
2023-02-19T16:04:28.807Z,42.90
2023-02-19T16:09:38.369Z,43.30
2023-02-19T16:14:40.759Z,44.00
2023-02-19T16:19:50.533Z,44.00
2023-02-19T16:24:57.357Z,44.20
2023-02-19T16:30:07.430Z,44.40
2023-02-19T16:35:42.069Z,44.80
2023-02-19T16:41:12.418Z,45.60
2023-02-19T16:46:15.105Z,45.30
2023-02-19T16:51:25.291Z,44.70
2023-02-19T16:56:29.481Z,44.80
2023-02-19T17:01:32.480Z,44.80
2023-02-19T17:06:35.668Z,44.80
2023-02-19T17:11:39.595Z,45.00
2023-02-19T17:16:41.898Z,44.30
2023-02-19T17:21:45.988Z,44.60
2023-02-19T17:26:49.682Z,44.00
2023-02-19T17:31:52.249Z,44.60
2023-02-19T17:36:54.622Z,44.90
2023-02-19T17:41:58.381Z,44.70
2023-02-19T17:47:01.574Z,45.40
2023-02-19T17:52:04.198Z,46.30
2023-02-19T17:57:07.836Z,46.40
2023-02-19T18:02:10.022Z,46.60
2023-02-19T18:07:12.371Z,47.20
2023-02-19T18:12:16.128Z,48.20
2023-02-19T18:17:18.371Z,48.70
2023-02-19T18:22:21.112Z,49.30
2023-02-19T18:27:25.018Z,50.30
2023-02-19T18:32:27.634Z,49.80
2023-02-19T18:37:30.943Z,51.60
2023-02-19T18:42:34.957Z,51.10
2023-02-19T18:47:37.149Z,52.00
2023-02-19T18:52:39.415Z,52.90
2023-02-19T18:57:43.256Z,53.80
2023-02-19T19:02:49.755Z,53.90
2023-02-19T19:07:54.103Z,54.50
2023-02-19T19:12:58.001Z,55.60
2023-02-19T19:18:00.327Z,55.70
2023-02-19T19:23:02.692Z,56.60
2023-02-19T19:28:06.499Z,58.10
2023-02-19T19:33:09.522Z,58.70
2023-02-19T19:38:12.025Z,58.10
2023-02-19T19:43:15.857Z,59.60
2023-02-19T19:48:19.525Z,59.80
2023-02-19T19:53:21.956Z,60.70
2023-02-19T19:58:25.742Z,60.30
2023-02-19T20:03:28.267Z,61.50
2023-02-19T20:08:31.141Z,62.30
2023-02-19T20:13:35.779Z,63.10
2023-02-19T20:18:38.332Z,63.60
2023-02-19T20:23:40.856Z,64.30
2023-02-19T20:28:44.517Z,64.50
2023-02-19T20:33:47.777Z,64.40
2023-02-19T20:38:50.319Z,64.80
2023-02-19T20:43:53.911Z,65.60
2023-02-19T20:48:56.537Z,65.40
2023-02-19T20:53:59.024Z,66.40
2023-02-19T20:59:02.791Z,65.90
2023-02-19T21:04:05.622Z,66.60
2023-02-19T21:09:08.293Z,66.60
2023-02-19T21:14:12.313Z,67.60
2023-02-19T21:19:14.620Z,67.40
2023-02-19T21:24:17.165Z,66.70
2023-02-19T21:29:22.520Z,66.60
2023-02-19T21:34:27.913Z,67.00
2023-02-19T21:39:30.496Z,66.90
2023-02-19T21:44:34.343Z,66.70
2023-02-19T21:49:36.680Z,67.40
2023-02-19T21:54:39.032Z,67.60
2023-02-19T21:59:42.836Z,66.70
2023-02-19T22:04:45.453Z,66.60
2023-02-19T22:09:49.746Z,66.70
2023-02-19T22:14:53.557Z,67.00
2023-02-19T22:19:55.903Z,67.10
2023-02-19T22:24:58.261Z,66.80
2023-02-19T22:30:01.995Z,66.90
2023-02-19T22:35:04.770Z,66.70
2023-02-19T22:40:08.367Z,66.90
2023-02-19T22:45:13.312Z,66.40
2023-02-19T22:50:23.323Z,66.40
2023-02-19T22:55:25.610Z,66.50
2023-02-19T23:00:29.286Z,66.40
2023-02-19T23:05:31.587Z,66.40
2023-02-19T23:10:34.014Z,65.90
2023-02-19T23:15:37.801Z,65.90
2023-02-19T23:20:40.272Z,65.80
2023-02-19T23:25:42.776Z,66.10
2023-02-19T23:30:46.831Z,66.00
2023-02-19T23:35:49.289Z,65.80
2023-02-19T23:40:51.638Z,65.70
2023-02-19T23:45:55.336Z,65.40
2023-02-19T23:50:57.822Z,65.20
2023-02-19T23:56:00.339Z,64.90
